createdAt,value
2023-03-24T00:00:00.230Z,10.89
2023-03-24T00:03:48.903Z,10.92
2023-03-24T00:07:16.362Z,10.94
2023-03-24T00:10:49.970Z,10.93
2023-03-24T00:14:14.842Z,10.91
2023-03-24T00:17:41.499Z,10.82
2023-03-24T00:21:11.874Z,10.74
2023-03-24T00:24:39.027Z,10.66
2023-03-24T00:28:07.935Z,10.58
2023-03-24T00:31:40.553Z,10.47
2023-03-24T00:35:09.239Z,10.36
2023-03-24T00:38:36.513Z,10.27
2023-03-24T00:42:04.929Z,10.16
2023-03-24T00:45:34.927Z,10.09
2023-03-24T00:49:06.294Z,10.06
2023-03-24T00:52:34.429Z,10.03
2023-03-24T00:56:02.202Z,10.03
2023-03-24T00:59:29.868Z,10.03
2023-03-24T01:02:58.617Z,10.03
2023-03-24T01:06:25.433Z,10.03
2023-03-24T01:09:57.704Z,10.03
2023-03-24T01:13:26.216Z,10.00
2023-03-24T01:16:53.512Z,9.96
2023-03-24T01:20:20.765Z,9.90
2023-03-24T01:23:47.934Z,9.83
2023-03-24T01:27:14.710Z,9.76
2023-03-24T01:30:42.952Z,9.70
2023-03-24T01:34:09.789Z,9.64
2023-03-24T01:37:36.448Z,9.57
2023-03-24T01:41:03.091Z,9.52
2023-03-24T01:44:34.948Z,9.48
2023-03-24T01:48:02.050Z,9.42
2023-03-24T01:51:35.704Z,9.42
2023-03-24T01:55:08.233Z,9.40
2023-03-24T01:58:37.210Z,9.41
2023-03-24T02:02:28.893Z,9.43
2023-03-24T02:05:58.958Z,9.45
2023-03-24T02:09:25.595Z,9.48
2023-03-24T02:12:53.302Z,9.51
2023-03-24T02:16:34.894Z,9.52
2023-03-24T02:20:37.302Z,9.54
2023-03-24T02:24:37.013Z,9.52
2023-03-24T02:28:20.896Z,9.48
2023-03-24T02:32:11.065Z,9.44
2023-03-24T02:36:06.373Z,9.39
2023-03-24T02:39:53.274Z,9.33
2023-03-24T02:43:34.557Z,9.28
2023-03-24T02:47:06.820Z,9.24
2023-03-24T02:50:43.235Z,9.22
2023-03-24T02:54:15.489Z,9.22
2023-03-24T02:57:45.361Z,9.21
2023-03-24T03:01:20.864Z,9.20
2023-03-24T03:05:20.165Z,9.23
2023-03-24T03:08:49.341Z,9.28
2023-03-24T03:12:20.066Z,9.35
2023-03-24T03:15:51.380Z,9.38
2023-03-24T03:19:22.231Z,9.43
2023-03-24T03:22:52.641Z,9.46
2023-03-24T03:26:24.380Z,9.49
2023-03-24T03:29:55.285Z,9.49
2023-03-24T03:33:27.368Z,9.48
2023-03-24T03:37:01.145Z,9.45
2023-03-24T03:40:32.887Z,9.40
2023-03-24T03:44:05.664Z,9.33
2023-03-24T03:47:33.804Z,9.25
2023-03-24T03:51:12.843Z,9.18
2023-03-24T03:54:45.137Z,9.15
2023-03-24T03:58:12.660Z,9.12
2023-03-24T04:01:44.688Z,9.13
2023-03-24T04:05:31.949Z,9.16
2023-03-24T04:09:18.088Z,9.16
2023-03-24T04:13:08.409Z,9.16
2023-03-24T04:17:06.274Z,9.19
2023-03-24T04:20:48.245Z,9.22
2023-03-24T04:24:27.628Z,9.27
2023-03-24T04:28:02.433Z,9.32
2023-03-24T04:31:34.486Z,9.35
2023-03-24T04:35:07.310Z,9.32
2023-03-24T04:38:57.580Z,9.30
2023-03-24T04:42:38.722Z,9.30
2023-03-24T04:46:09.118Z,9.31
2023-03-24T04:50:01.385Z,9.31
2023-03-24T04:53:30.200Z,9.30
2023-03-24T04:56:59.366Z,9.28
2023-03-24T05:00:33.820Z,9.24
2023-03-24T05:04:01.411Z,9.20
2023-03-24T05:07:28.748Z,9.14
2023-03-24T05:10:58.969Z,9.14
2023-03-24T05:14:26.697Z,9.11
2023-03-24T05:17:53.986Z,9.10
2023-03-24T05:21:23.471Z,9.13
2023-03-24T05:24:50.472Z,9.14
2023-03-24T05:28:17.362Z,9.18
2023-03-24T05:31:45.398Z,9.23
2023-03-24T05:35:21.026Z,9.30
2023-03-24T05:38:49.236Z,9.40
2023-03-24T05:42:17.314Z,9.46
2023-03-24T05:45:45.455Z,9.52
2023-03-24T05:49:18.940Z,9.61
2023-03-24T05:52:48.678Z,9.68
2023-03-24T05:56:31.611Z,9.74
2023-03-24T06:00:01.190Z,9.77
2023-03-24T06:03:51.563Z,9.79
2023-03-24T06:07:19.324Z,9.79
2023-03-24T06:10:46.934Z,9.77
2023-03-24T06:14:13.895Z,9.76
2023-03-24T06:17:55.011Z,9.77
2023-03-24T06:21:32.563Z,9.78
2023-03-24T06:25:05.148Z,9.83
2023-03-24T06:28:34.712Z,9.91
2023-03-24T06:32:05.786Z,9.98
2023-03-24T06:35:38.883Z,10.03
2023-03-24T06:39:09.666Z,10.13
2023-03-24T06:42:36.909Z,10.23
2023-03-24T06:46:03.856Z,10.28
2023-03-24T06:49:30.471Z,10.37
2023-03-24T06:52:57.052Z,10.46
2023-03-24T06:56:25.113Z,10.56
2023-03-24T06:59:55.827Z,10.62
2023-03-24T07:03:25.329Z,10.75
2023-03-24T07:07:57.082Z,10.83
2023-03-24T07:11:26.132Z,10.90
2023-03-24T07:14:56.082Z,10.94
2023-03-24T07:18:23.459Z,10.97
2023-03-24T07:21:56.609Z,11.03
2023-03-24T07:25:34.587Z,11.06
2023-03-24T07:29:24.419Z,11.07
2023-03-24T07:33:15.704Z,11.08
2023-03-24T07:36:44.794Z,11.12
2023-03-24T07:40:22.881Z,11.15
2023-03-24T07:43:50.297Z,11.19
2023-03-24T07:47:24.989Z,11.22
2023-03-24T07:50:53.630Z,11.27
2023-03-24T07:54:49.451Z,11.33
2023-03-24T07:58:34.056Z,11.38
2023-03-24T08:02:22.471Z,11.47
2023-03-24T08:06:22.026Z,11.54
2023-03-24T08:09:55.955Z,11.58
2023-03-24T08:13:22.800Z,11.64
2023-03-24T08:16:50.784Z,11.72
2023-03-24T08:20:19.501Z,11.79
2023-03-24T08:23:46.102Z,11.89
2023-03-24T08:27:13.115Z,12.01
2023-03-24T08:30:46.483Z,12.10
2023-03-24T08:34:14.449Z,12.19
2023-03-24T08:37:42.615Z,12.30
2023-03-24T08:41:10.094Z,12.47
2023-03-24T08:44:37.717Z,12.60
2023-03-24T08:48:07.273Z,12.75
2023-03-24T08:51:35.002Z,12.83
2023-03-24T08:55:02.470Z,12.90
2023-03-24T08:58:32.800Z,12.98
2023-03-24T09:01:59.257Z,13.10
2023-03-24T09:05:37.067Z,13.20
2023-03-24T09:09:10.208Z,13.35
2023-03-24T09:12:37.176Z,13.47
2023-03-24T09:16:05.107Z,13.57
2023-03-24T09:19:34.358Z,13.72
2023-03-24T09:23:01.728Z,13.85
2023-03-24T09:26:28.622Z,13.95
2023-03-24T09:29:55.740Z,14.07
2023-03-24T09:33:25.081Z,14.21
2023-03-24T09:36:52.319Z,14.29
2023-03-24T09:40:23.294Z,14.38
2023-03-24T09:43:58.429Z,14.51
2023-03-24T09:47:31.864Z,14.60
2023-03-24T09:51:02.536Z,14.64
2023-03-24T09:54:38.428Z,14.64
2023-03-24T09:58:09.433Z,14.69
2023-03-24T10:01:40.324Z,14.79
2023-03-24T10:05:16.762Z,14.86
2023-03-24T10:08:50.303Z,14.98
2023-03-24T10:12:31.418Z,15.10
2023-03-24T10:16:08.019Z,15.29
2023-03-24T10:19:45.585Z,15.52
2023-03-24T10:23:26.400Z,15.75
2023-03-24T10:27:03.779Z,15.81
2023-03-24T10:30:34.598Z,15.81
2023-03-24T10:34:02.487Z,15.83
2023-03-24T10:37:32.291Z,15.85
2023-03-24T10:41:00.054Z,15.89
2023-03-24T10:44:27.274Z,16.01
2023-03-24T10:47:55.080Z,16.09
2023-03-24T10:51:24.539Z,16.16
2023-03-24T10:54:59.551Z,16.25
2023-03-24T10:58:37.891Z,16.41
2023-03-24T11:02:17.761Z,16.57
2023-03-24T11:05:45.097Z,16.74
2023-03-24T11:09:18.931Z,16.77
2023-03-24T11:13:02.649Z,16.74
2023-03-24T11:16:37.216Z,16.71
2023-03-24T11:20:06.420Z,16.68
2023-03-24T11:23:36.115Z,16.68
2023-03-24T11:27:04.308Z,16.71
2023-03-24T11:30:35.892Z,16.75
2023-03-24T11:34:09.261Z,16.74
2023-03-24T11:37:35.596Z,16.74
2023-03-24T11:41:06.137Z,16.69
2023-03-24T11:44:43.185Z,16.70
2023-03-24T11:48:21.201Z,16.69
2023-03-24T11:51:53.158Z,16.67
2023-03-24T11:55:25.761Z,16.60
2023-03-24T11:58:56.962Z,16.52
2023-03-24T12:02:39.343Z,16.41
2023-03-24T12:06:15.720Z,16.29
2023-03-24T12:09:48.660Z,16.18
2023-03-24T12:13:31.803Z,16.05
2023-03-24T12:17:06.718Z,15.92
2023-03-24T12:20:39.126Z,15.80
2023-03-24T12:24:17.611Z,15.75
2023-03-24T12:27:54.290Z,15.68
2023-03-24T12:31:42.063Z,15.59
2023-03-24T12:35:38.951Z,15.47
2023-03-24T12:39:13.161Z,15.35
2023-03-24T12:42:40.617Z,15.25
2023-03-24T12:46:15.996Z,15.21
2023-03-24T12:50:05.899Z,15.21
2023-03-24T12:53:43.633Z,15.19
2023-03-24T12:57:15.735Z,15.19
2023-03-24T13:00:47.756Z,15.17
2023-03-24T13:04:21.249Z,15.22
2023-03-24T13:07:54.349Z,15.25
2023-03-24T13:11:33.250Z,15.37
2023-03-24T13:15:15.209Z,15.44
2023-03-24T13:18:45.381Z,15.49
2023-03-24T13:22:18.127Z,15.55
2023-03-24T13:25:52.945Z,15.61
2023-03-24T13:29:55.845Z,15.62
2023-03-24T13:33:26.799Z,15.55
2023-03-24T13:36:57.649Z,15.53
2023-03-24T13:40:28.073Z,15.50
2023-03-24T13:44:02.343Z,15.49
2023-03-24T13:47:32.052Z,15.49
2023-03-24T13:51:01.948Z,15.53
2023-03-24T13:54:30.993Z,15.57
2023-03-24T13:58:02.000Z,15.65
2023-03-24T14:01:41.100Z,15.72
2023-03-24T14:05:10.217Z,15.71
2023-03-24T14:08:56.083Z,15.74
2023-03-24T14:12:27.396Z,15.76
2023-03-24T14:15:56.725Z,15.78
2023-03-24T14:19:31.404Z,15.80
2023-03-24T14:22:58.606Z,15.86
2023-03-24T14:26:36.944Z,15.91
2023-03-24T14:30:13.679Z,16.00
2023-03-24T14:33:41.667Z,16.06
2023-03-24T14:37:11.367Z,16.08
2023-03-24T14:40:40.350Z,16.08
2023-03-24T14:44:10.491Z,16.04
2023-03-24T14:47:39.932Z,16.05
2023-03-24T14:51:18.286Z,16.02
2023-03-24T14:54:53.697Z,16.02
2023-03-24T14:58:28.271Z,16.06
2023-03-24T15:02:00.892Z,16.08
2023-03-24T15:05:32.230Z,16.06
2023-03-24T15:09:01.436Z,16.05
2023-03-24T15:12:28.531Z,16.04
2023-03-24T15:15:58.818Z,15.99
2023-03-24T15:19:28.991Z,15.96
2023-03-24T15:22:56.434Z,15.92
2023-03-24T15:26:24.704Z,15.90
2023-03-24T15:29:59.250Z,15.87
2023-03-24T15:33:31.280Z,15.83
2023-03-24T15:37:00.017Z,15.80
2023-03-24T15:40:39.316Z,15.77
2023-03-24T15:44:11.331Z,15.73
2023-03-24T15:47:43.287Z,15.71
2023-03-24T15:51:12.758Z,15.72
2023-03-24T15:54:43.126Z,15.72
2023-03-24T15:58:27.199Z,15.74
2023-03-24T16:01:54.555Z,15.74
2023-03-24T16:05:26.172Z,15.75
2023-03-24T16:08:52.782Z,15.77
2023-03-24T16:12:19.737Z,15.78
2023-03-24T16:15:49.867Z,15.77
2023-03-24T16:19:16.787Z,15.74
2023-03-24T16:22:43.891Z,15.73
2023-03-24T16:26:13.918Z,15.71
2023-03-24T16:29:40.899Z,15.67
2023-03-24T16:33:08.821Z,15.62
2023-03-24T16:36:36.439Z,15.59
2023-03-24T16:40:03.898Z,15.57
2023-03-24T16:43:33.570Z,15.51
2023-03-24T16:47:01.112Z,15.49
2023-03-24T16:50:33.695Z,15.45
2023-03-24T16:54:00.915Z,15.43
2023-03-24T16:57:28.049Z,15.39
2023-03-24T17:00:59.042Z,15.37
2023-03-24T17:04:27.695Z,15.37
2023-03-24T17:07:55.813Z,15.36
2023-03-24T17:11:30.599Z,15.35
2023-03-24T17:14:57.296Z,15.30
2023-03-24T17:18:25.075Z,15.23
2023-03-24T17:21:58.101Z,15.05
2023-03-24T17:25:29.480Z,14.83
2023-03-24T17:28:56.928Z,14.64
2023-03-24T17:32:29.925Z,14.44
2023-03-24T17:35:57.059Z,14.18
2023-03-24T17:39:24.948Z,13.96
2023-03-24T17:42:54.750Z,13.75
2023-03-24T17:46:22.566Z,13.61
2023-03-24T17:49:49.518Z,13.44
2023-03-24T17:53:17.783Z,13.32
2023-03-24T17:56:44.902Z,13.26
2023-03-24T18:00:15.162Z,13.21
2023-03-24T18:03:45.071Z,13.19
2023-03-24T18:07:12.213Z,13.14
2023-03-24T18:10:39.918Z,13.10
2023-03-24T18:14:09.412Z,13.06
2023-03-24T18:17:37.811Z,13.00
2023-03-24T18:21:05.169Z,12.97
2023-03-24T18:24:32.499Z,12.92
2023-03-24T18:27:59.089Z,12.82
2023-03-24T18:31:26.596Z,12.71
2023-03-24T18:34:55.290Z,12.66
2023-03-24T18:38:22.894Z,12.62
2023-03-24T18:41:53.655Z,12.58
2023-03-24T18:45:21.240Z,12.51
2023-03-24T18:48:49.246Z,12.40
2023-03-24T18:52:18.425Z,12.31
2023-03-24T18:55:51.992Z,12.25
2023-03-24T18:59:20.351Z,12.20
2023-03-24T19:02:49.246Z,12.17
2023-03-24T19:06:17.786Z,12.14
2023-03-24T19:09:46.223Z,12.08
2023-03-24T19:13:14.922Z,12.03
2023-03-24T19:16:42.032Z,11.97
2023-03-24T19:20:12.106Z,11.91
2023-03-24T19:23:41.989Z,11.87
2023-03-24T19:27:08.776Z,11.80
2023-03-24T19:30:38.824Z,11.75
2023-03-24T19:34:06.396Z,11.69
2023-03-24T19:37:34.649Z,11.68
2023-03-24T19:41:08.087Z,11.67
2023-03-24T19:44:35.043Z,11.66
2023-03-24T19:48:01.844Z,11.62
2023-03-24T19:51:29.934Z,11.55
2023-03-24T19:54:56.818Z,11.53
2023-03-24T19:58:25.400Z,11.47
2023-03-24T20:01:52.343Z,11.38
2023-03-24T20:05:19.634Z,11.31
2023-03-24T20:08:47.525Z,11.26
2023-03-24T20:12:14.278Z,11.19
2023-03-24T20:15:41.152Z,11.13
2023-03-24T20:19:08.221Z,11.08
2023-03-24T20:22:36.903Z,11.04
2023-03-24T20:26:04.348Z,11.02
2023-03-24T20:29:31.954Z,11.01
2023-03-24T20:32:59.901Z,11.01
2023-03-24T20:36:27.061Z,11.00
2023-03-24T20:39:55.289Z,10.98
2023-03-24T20:43:21.775Z,10.96
2023-03-24T20:46:49.244Z,10.92
2023-03-24T20:50:16.348Z,10.91
2023-03-24T20:53:45.121Z,10.88
2023-03-24T20:57:13.276Z,10.85
2023-03-24T21:00:42.232Z,10.82
2023-03-24T21:04:10.991Z,10.77
2023-03-24T21:07:44.098Z,10.70
2023-03-24T21:11:12.949Z,10.57
2023-03-24T21:14:41.650Z,10.47
2023-03-24T21:18:09.896Z,10.36
2023-03-24T21:21:38.429Z,10.29
2023-03-24T21:25:06.786Z,10.23
2023-03-24T21:28:34.328Z,10.17
2023-03-24T21:32:01.402Z,10.12
2023-03-24T21:35:29.004Z,10.08
2023-03-24T21:38:56.785Z,10.05
2023-03-24T21:42:30.977Z,10.03
2023-03-24T21:45:59.494Z,10.04
2023-03-24T21:49:30.487Z,10.04
2023-03-24T21:52:59.469Z,10.03
2023-03-24T21:56:33.127Z,10.00
2023-03-24T22:00:13.270Z,9.97
2023-03-24T22:03:40.866Z,9.91
2023-03-24T22:07:16.002Z,9.86
2023-03-24T22:10:46.385Z,9.82
2023-03-24T22:14:16.922Z,9.73
2023-03-24T22:17:45.423Z,9.67
2023-03-24T22:21:17.286Z,9.63
2023-03-24T22:24:44.911Z,9.57
2023-03-24T22:28:12.151Z,9.56
2023-03-24T22:31:43.908Z,9.53
2023-03-24T22:35:14.540Z,9.52
2023-03-24T22:38:53.632Z,9.54
2023-03-24T22:42:31.935Z,9.56
2023-03-24T22:46:20.351Z,9.58
2023-03-24T22:50:00.108Z,9.59
2023-03-24T22:53:28.232Z,9.59
2023-03-24T22:56:55.653Z,9.58
2023-03-24T23:00:31.065Z,9.55
2023-03-24T23:03:59.560Z,9.51
2023-03-24T23:07:33.682Z,9.46
2023-03-24T23:11:06.928Z,9.42
2023-03-24T23:14:34.769Z,9.39
2023-03-24T23:18:07.336Z,9.32
2023-03-24T23:21:35.626Z,9.21
2023-03-24T23:25:04.262Z,9.12
2023-03-24T23:28:32.513Z,9.04
2023-03-24T23:32:00.033Z,8.99
2023-03-24T23:35:26.980Z,8.96
2023-03-24T23:38:55.944Z,8.94
2023-03-24T23:42:25.582Z,8.92
2023-03-24T23:45:58.032Z,8.89
2023-03-24T23:49:25.098Z,8.89
2023-03-24T23:52:52.266Z,8.89
2023-03-24T23:56:22.244Z,8.92
2023-03-24T23:59:53.211Z,8.93
